createdAt,value
2023-03-04T00:01:48.290Z,16.33
2023-03-04T00:04:14.838Z,16.70
2023-03-04T00:06:41.216Z,18.57
2023-03-04T00:09:07.625Z,24.20
2023-03-04T00:11:34.312Z,15.00
2023-03-04T00:14:00.754Z,21.30
2023-03-04T00:16:27.436Z,18.57
2023-03-04T00:18:55.141Z,19.20
2023-03-04T00:21:21.693Z,23.70
2023-03-04T00:23:48.295Z,15.10
2023-03-04T00:26:14.840Z,15.73
2023-03-04T00:28:41.247Z,19.87
2023-03-04T00:31:08.562Z,17.67
2023-03-04T00:33:35.103Z,23.00
2023-03-04T00:36:01.702Z,14.37
2023-03-04T00:38:28.160Z,13.20
2023-03-04T00:40:54.554Z,15.50
2023-03-04T00:43:21.430Z,18.37
2023-03-04T00:45:47.933Z,8.90
2023-03-04T00:48:14.920Z,13.40
2023-03-04T00:50:41.280Z,16.13
2023-03-04T00:53:07.919Z,23.70
2023-03-04T00:55:34.308Z,20.67
2023-03-04T00:58:00.773Z,10.47
2023-03-04T01:00:27.255Z,13.57
2023-03-04T01:02:53.654Z,14.37
2023-03-04T01:05:20.219Z,15.23
2023-03-04T01:07:46.858Z,13.90
2023-03-04T01:10:14.968Z,18.93
2023-03-04T01:12:41.902Z,20.33
2023-03-04T01:15:13.241Z,19.50
2023-03-04T01:17:40.131Z,24.73
2023-03-04T01:20:07.792Z,20.00
2023-03-04T01:22:34.183Z,19.67
2023-03-04T01:25:00.597Z,12.47
2023-03-04T01:27:27.085Z,17.77
2023-03-04T01:29:53.476Z,18.57
2023-03-04T01:32:19.870Z,15.97
2023-03-04T01:34:46.292Z,15.37
2023-03-04T01:37:13.896Z,16.67
2023-03-04T01:39:40.320Z,13.77
2023-03-04T01:42:13.713Z,16.90
2023-03-04T01:44:40.108Z,14.53
2023-03-04T01:47:06.498Z,19.97
2023-03-04T01:49:33.581Z,16.90
2023-03-04T01:52:00.000Z,18.43
2023-03-04T01:54:26.397Z,14.33
2023-03-04T01:56:52.836Z,20.47
2023-03-04T01:59:20.862Z,16.93
2023-03-04T02:01:49.380Z,17.10
2023-03-04T02:04:17.052Z,16.77
2023-03-04T02:06:44.467Z,14.60
2023-03-04T02:09:11.142Z,8.60
2023-03-04T02:11:38.687Z,10.63
2023-03-04T02:14:05.852Z,11.17
2023-03-04T02:16:32.462Z,9.53
2023-03-04T02:18:59.061Z,7.73
2023-03-04T02:21:33.565Z,11.80
2023-03-04T02:24:18.144Z,9.97
2023-03-04T02:26:47.004Z,10.40
2023-03-04T02:29:15.153Z,15.60
2023-03-04T02:31:49.876Z,13.67
2023-03-04T02:34:19.613Z,16.73
2023-03-04T02:36:47.203Z,11.60
2023-03-04T02:39:21.261Z,13.67
2023-03-04T02:41:48.913Z,10.53
2023-03-04T02:44:18.028Z,11.80
2023-03-04T02:46:45.078Z,15.53
2023-03-04T02:49:11.496Z,11.70
2023-03-04T02:51:37.972Z,15.33
2023-03-04T02:54:04.845Z,11.83
2023-03-04T02:56:31.240Z,10.63
2023-03-04T02:58:57.810Z,13.27
2023-03-04T03:01:28.501Z,12.37
2023-03-04T03:03:54.920Z,18.17
2023-03-04T03:06:21.316Z,12.10
2023-03-04T03:08:47.824Z,8.63
2023-03-04T03:11:14.207Z,14.97
2023-03-04T03:13:40.581Z,10.17
2023-03-04T03:16:07.153Z,10.33
2023-03-04T03:18:33.550Z,8.53
2023-03-04T03:20:59.962Z,14.10
2023-03-04T03:23:26.374Z,9.30
2023-03-04T03:25:52.778Z,7.90
2023-03-04T03:28:19.132Z,8.67
2023-03-04T03:30:45.786Z,13.30
2023-03-04T03:33:12.177Z,11.10
2023-03-04T03:35:38.897Z,9.73
2023-03-04T03:38:05.286Z,9.50
2023-03-04T03:40:31.787Z,10.10
2023-03-04T03:42:58.175Z,13.43
2023-03-04T03:45:24.756Z,10.63
2023-03-04T03:47:51.288Z,10.53
2023-03-04T03:50:18.127Z,14.17
2023-03-04T03:52:44.681Z,14.23
2023-03-04T03:55:11.512Z,6.87
2023-03-04T03:57:38.227Z,7.67
2023-03-04T04:00:07.447Z,9.73
2023-03-04T04:02:33.941Z,9.13
2023-03-04T04:05:00.415Z,6.57
2023-03-04T04:07:27.065Z,11.27
2023-03-04T04:09:53.592Z,7.57
2023-03-04T04:12:20.937Z,8.43
2023-03-04T04:14:47.573Z,4.97
2023-03-04T04:17:14.035Z,10.63
2023-03-04T04:19:41.173Z,9.53
2023-03-04T04:22:09.911Z,4.53
2023-03-04T04:24:36.328Z,7.80
2023-03-04T04:27:04.405Z,8.07
2023-03-04T04:29:31.294Z,8.10
2023-03-04T04:31:57.975Z,7.00
2023-03-04T04:34:24.705Z,5.17
2023-03-04T04:36:51.764Z,6.80
2023-03-04T04:39:18.955Z,6.73
2023-03-04T04:41:46.225Z,10.93
2023-03-04T04:44:13.855Z,10.10
2023-03-04T04:46:41.419Z,7.27
2023-03-04T04:49:08.221Z,16.47
2023-03-04T04:51:36.449Z,7.53
2023-03-04T04:54:03.359Z,11.03
2023-03-04T04:56:30.001Z,9.03
2023-03-04T04:58:58.274Z,8.93
2023-03-04T05:01:27.170Z,9.30
2023-03-04T05:03:55.336Z,10.27
2023-03-04T05:06:24.711Z,10.20
2023-03-04T05:08:51.731Z,11.00
2023-03-04T05:11:19.493Z,8.60
2023-03-04T05:13:46.535Z,7.63
2023-03-04T05:16:13.591Z,10.43
2023-03-04T05:18:40.112Z,4.93
2023-03-04T05:21:06.957Z,15.90
2023-03-04T05:23:35.336Z,5.70
2023-03-04T05:26:02.845Z,8.00
2023-03-04T05:28:29.276Z,9.17
2023-03-04T05:30:55.830Z,5.87
2023-03-04T05:33:22.399Z,11.30
2023-03-04T05:35:49.757Z,10.77
2023-03-04T05:38:19.596Z,6.93
2023-03-04T05:40:46.806Z,3.87
2023-03-04T05:43:13.243Z,4.77
2023-03-04T05:45:40.286Z,9.30
2023-03-04T05:48:06.922Z,3.63
2023-03-04T05:50:33.749Z,7.83
2023-03-04T05:53:00.470Z,6.47
2023-03-04T05:55:28.981Z,5.77
2023-03-04T05:57:55.708Z,6.43
2023-03-04T06:00:22.134Z,5.77
2023-03-04T06:02:50.380Z,7.83
2023-03-04T06:05:17.443Z,5.10
2023-03-04T06:07:45.199Z,8.63
2023-03-04T06:10:16.713Z,8.97
2023-03-04T06:12:43.654Z,6.70
2023-03-04T06:15:12.014Z,7.43
2023-03-04T06:17:41.807Z,8.57
2023-03-04T06:20:10.539Z,13.07
2023-03-04T06:22:38.050Z,8.50
2023-03-04T06:25:04.951Z,7.37
2023-03-04T06:27:31.418Z,9.30
2023-03-04T06:29:58.910Z,9.83
2023-03-04T06:32:25.473Z,7.80
2023-03-04T06:34:51.937Z,10.30
2023-03-04T06:37:18.383Z,8.37
2023-03-04T06:39:45.404Z,6.07
2023-03-04T06:42:12.632Z,8.97
2023-03-04T06:44:39.021Z,7.30
2023-03-04T06:47:05.514Z,8.13
2023-03-04T06:49:31.907Z,12.80
2023-03-04T06:51:58.456Z,17.00
2023-03-04T06:54:24.874Z,23.20
2023-03-04T06:56:51.435Z,23.03
2023-03-04T06:59:17.848Z,23.63
2023-03-04T07:01:44.549Z,19.47
2023-03-04T07:04:13.264Z,10.07
2023-03-04T07:06:39.807Z,7.87
2023-03-04T07:09:06.277Z,5.63
2023-03-04T07:11:32.826Z,7.43
2023-03-04T07:13:59.375Z,6.07
2023-03-04T07:16:25.891Z,6.70
2023-03-04T07:18:52.551Z,8.97
2023-03-04T07:21:19.494Z,11.90
2023-03-04T07:23:46.272Z,9.07
2023-03-04T07:26:12.737Z,13.73
2023-03-04T07:28:39.469Z,12.87
2023-03-04T07:31:24.206Z,11.47
2023-03-04T07:33:51.008Z,13.20
2023-03-04T07:36:20.014Z,9.47
2023-03-04T07:38:49.524Z,14.60
2023-03-04T07:41:17.562Z,17.77
2023-03-04T07:43:44.566Z,12.10
2023-03-04T07:46:11.253Z,20.03
2023-03-04T07:48:38.040Z,23.63
2023-03-04T07:51:15.427Z,19.93
2023-03-04T07:53:44.012Z,12.37
2023-03-04T07:56:18.840Z,12.00
2023-03-04T07:58:45.580Z,16.30
2023-03-04T08:01:14.046Z,18.83
2023-03-04T08:03:40.608Z,15.50
2023-03-04T08:06:09.417Z,17.77
2023-03-04T08:08:36.524Z,20.60
2023-03-04T08:11:07.692Z,23.30
2023-03-04T08:13:36.056Z,18.33
2023-03-04T08:16:03.299Z,20.87
2023-03-04T08:18:30.025Z,23.00
2023-03-04T08:20:56.655Z,20.37
2023-03-04T08:23:24.063Z,22.30
2023-03-04T08:25:50.449Z,21.73
2023-03-04T08:28:17.286Z,23.27
2023-03-04T08:30:43.872Z,22.43
2023-03-04T08:33:10.574Z,24.10
2023-03-04T08:35:39.392Z,20.47
2023-03-04T08:38:06.445Z,20.67
2023-03-04T08:40:33.570Z,15.13
2023-03-04T08:43:00.355Z,22.20
2023-03-04T08:45:26.796Z,21.27
2023-03-04T08:47:53.171Z,15.03
2023-03-04T08:50:22.249Z,13.13
2023-03-04T08:52:48.845Z,20.10
2023-03-04T08:55:15.307Z,15.27
2023-03-04T08:57:41.768Z,11.10
2023-03-04T09:00:08.858Z,9.53
2023-03-04T09:02:35.247Z,14.70
2023-03-04T09:05:01.692Z,11.73
2023-03-04T09:07:28.114Z,14.20
2023-03-04T09:09:54.587Z,8.33
2023-03-04T09:12:20.979Z,5.20
2023-03-04T09:14:51.324Z,10.60
2023-03-04T09:17:24.678Z,13.13
2023-03-04T09:19:51.075Z,12.83
2023-03-04T09:22:17.783Z,12.90
2023-03-04T09:24:44.193Z,19.20
2023-03-04T09:27:10.646Z,15.73
2023-03-04T09:29:37.097Z,15.90
2023-03-04T09:32:03.636Z,17.80
2023-03-04T09:34:30.092Z,14.43
2023-03-04T09:36:56.777Z,11.77
2023-03-04T09:39:23.198Z,19.13
2023-03-04T09:41:52.851Z,18.37
2023-03-04T09:44:36.737Z,17.83
2023-03-04T09:47:06.747Z,15.60
2023-03-04T09:49:33.233Z,11.27
2023-03-04T09:52:24.843Z,10.97
2023-03-04T09:55:13.280Z,21.80
2023-03-04T09:57:42.712Z,15.83
2023-03-04T10:00:19.988Z,13.27
2023-03-04T10:03:15.391Z,16.63
2023-03-04T10:06:07.916Z,19.63
2023-03-04T10:08:46.290Z,14.60
2023-03-04T10:11:43.434Z,17.37
2023-03-04T10:14:28.098Z,17.83
2023-03-04T10:17:00.998Z,14.57
2023-03-04T10:19:49.112Z,13.57
2023-03-04T10:22:31.597Z,17.53
2023-03-04T10:24:59.347Z,19.67
2023-03-04T10:27:26.440Z,19.70
2023-03-04T10:29:52.826Z,14.97
2023-03-04T10:32:20.476Z,21.67
2023-03-04T10:34:47.282Z,14.37
2023-03-04T10:37:13.722Z,21.63
2023-03-04T10:39:44.886Z,15.60
2023-03-04T10:42:14.320Z,11.63
2023-03-04T10:44:52.160Z,22.10
2023-03-04T10:47:18.745Z,15.53
2023-03-04T10:49:54.109Z,8.80
2023-03-04T10:52:38.782Z,10.30
2023-03-04T10:55:20.002Z,14.57
2023-03-04T10:57:49.920Z,18.53
2023-03-04T11:00:34.617Z,17.33
2023-03-04T11:03:23.583Z,14.57
2023-03-04T11:05:53.491Z,12.90
2023-03-04T11:08:22.512Z,12.23
2023-03-04T11:10:52.078Z,19.03
2023-03-04T11:13:21.950Z,24.20
2023-03-04T11:15:57.541Z,18.33
2023-03-04T11:18:38.217Z,15.30
2023-03-04T11:21:05.874Z,19.77
2023-03-04T11:23:38.264Z,19.63
2023-03-04T11:26:10.439Z,19.67
2023-03-04T11:28:43.247Z,19.57
2023-03-04T11:31:21.863Z,12.43
2023-03-04T11:33:55.952Z,8.10
2023-03-04T11:36:31.395Z,17.50
2023-03-04T11:38:58.311Z,19.17
2023-03-04T11:41:34.102Z,20.40
2023-03-04T11:44:00.608Z,18.47
2023-03-04T11:46:45.700Z,20.70
2023-03-04T11:49:18.314Z,11.33
2023-03-04T11:51:54.577Z,14.33
2023-03-04T11:54:47.456Z,13.50
2023-03-04T11:57:27.837Z,16.53
2023-03-04T12:00:02.430Z,19.80
2023-03-04T12:02:34.429Z,11.20
2023-03-04T12:05:16.266Z,19.00
2023-03-04T12:08:04.143Z,14.50
2023-03-04T12:10:51.739Z,21.20
2023-03-04T12:13:43.217Z,18.23
2023-03-04T12:16:21.373Z,18.30
2023-03-04T12:19:12.897Z,20.00
2023-03-04T12:21:55.268Z,24.20
2023-03-04T12:24:33.686Z,20.77
2023-03-04T12:27:02.220Z,15.37
2023-03-04T12:30:02.290Z,21.67
2023-03-04T12:32:40.549Z,17.27
2023-03-04T12:35:37.553Z,25.47
2023-03-04T12:38:22.552Z,19.53
2023-03-04T12:40:57.537Z,21.57
2023-03-04T12:43:32.918Z,24.07
2023-03-04T12:46:07.489Z,17.07
2023-03-04T12:48:41.450Z,25.63
2023-03-04T12:51:17.066Z,16.30
2023-03-04T12:53:54.552Z,21.13
2023-03-04T12:56:58.049Z,19.03
2023-03-04T12:59:26.648Z,19.23
2023-03-04T13:01:56.598Z,23.67
2023-03-04T13:04:34.799Z,23.67
2023-03-04T13:07:41.975Z,20.53
2023-03-04T13:10:12.845Z,21.13
2023-03-04T13:12:53.542Z,21.73
2023-03-04T13:15:23.986Z,22.73
2023-03-04T13:17:51.552Z,22.70
2023-03-04T13:20:30.163Z,18.40
2023-03-04T13:22:58.250Z,22.43
2023-03-04T13:25:33.920Z,18.60
2023-03-04T13:28:00.541Z,20.00
2023-03-04T13:30:43.112Z,14.07
2023-03-04T13:33:18.365Z,11.60
2023-03-04T13:36:02.734Z,12.73
2023-03-04T13:38:32.458Z,15.90
2023-03-04T13:41:04.973Z,20.37
2023-03-04T13:43:52.250Z,18.20
2023-03-04T13:46:21.242Z,18.07
2023-03-04T13:48:53.082Z,20.23
2023-03-04T13:51:29.930Z,16.60
2023-03-04T13:53:59.829Z,17.27
2023-03-04T13:56:31.516Z,14.23
2023-03-04T13:59:07.037Z,21.50
2023-03-04T14:02:06.833Z,16.70
2023-03-04T14:04:41.714Z,16.47
2023-03-04T14:07:26.147Z,11.20
2023-03-04T14:10:00.132Z,17.67
2023-03-04T14:12:29.272Z,11.90
2023-03-04T14:15:31.235Z,20.43
2023-03-04T14:18:02.581Z,15.07
2023-03-04T14:20:34.586Z,9.43
2023-03-04T14:23:02.941Z,10.70
2023-03-04T14:25:36.683Z,14.33
2023-03-04T14:28:12.599Z,15.13
2023-03-04T14:30:43.202Z,19.70
2023-03-04T14:33:16.232Z,18.30
2023-03-04T14:35:48.313Z,14.67
2023-03-04T14:38:27.434Z,17.50
2023-03-04T14:41:05.304Z,11.33
2023-03-04T14:43:36.630Z,16.73
2023-03-04T14:46:03.705Z,11.40
2023-03-04T14:48:33.728Z,14.37
2023-03-04T14:51:01.754Z,11.07
2023-03-04T14:53:33.060Z,14.67
2023-03-04T14:56:00.412Z,19.73
2023-03-04T14:58:29.720Z,14.00
2023-03-04T15:01:19.500Z,17.83
2023-03-04T15:03:54.129Z,9.60
2023-03-04T15:06:23.123Z,11.83
2023-03-04T15:09:05.818Z,13.37
2023-03-04T15:11:47.563Z,6.17
2023-03-04T15:14:52.189Z,15.13
2023-03-04T15:17:39.308Z,12.37
2023-03-04T15:20:05.783Z,12.70
2023-03-04T15:22:37.432Z,13.57
2023-03-04T15:25:03.992Z,23.10
2023-03-04T15:27:30.857Z,8.00
2023-03-04T15:29:59.311Z,11.90
2023-03-04T15:32:26.641Z,12.90
2023-03-04T15:34:53.247Z,11.27
2023-03-04T15:37:22.365Z,13.27
2023-03-04T15:39:49.382Z,14.40
2023-03-04T15:42:17.697Z,9.03
2023-03-04T15:44:44.181Z,8.57
2023-03-04T15:47:13.070Z,11.43
2023-03-04T15:49:41.027Z,9.77
2023-03-04T15:52:13.525Z,12.43
2023-03-04T15:54:40.110Z,13.77
2023-03-04T15:57:09.299Z,12.40
2023-03-04T15:59:35.733Z,8.30
2023-03-04T16:02:02.125Z,10.60
2023-03-04T16:04:28.599Z,12.97
2023-03-04T16:06:58.817Z,8.27
2023-03-04T16:09:26.436Z,12.07
2023-03-04T16:11:56.296Z,12.90
2023-03-04T16:14:22.774Z,8.37
2023-03-04T16:16:50.417Z,10.87
2023-03-04T16:19:16.822Z,14.07
2023-03-04T16:21:44.349Z,12.33
2023-03-04T16:24:17.289Z,12.80
2023-03-04T16:26:43.810Z,8.53
2023-03-04T16:29:12.638Z,11.83
2023-03-04T16:31:39.051Z,9.03
2023-03-04T16:34:05.510Z,16.73
2023-03-04T16:36:32.155Z,12.03
2023-03-04T16:39:03.029Z,16.07
2023-03-04T16:41:32.188Z,13.50
2023-03-04T16:44:00.625Z,14.13
2023-03-04T16:46:27.268Z,16.60
2023-03-04T16:48:53.955Z,17.27
2023-03-04T16:51:22.361Z,14.70
2023-03-04T16:53:52.284Z,15.60
2023-03-04T16:56:19.657Z,27.50
2023-03-04T16:58:46.279Z,21.10
2023-03-04T17:01:24.690Z,12.47
2023-03-04T17:03:51.864Z,20.30
2023-03-04T17:06:19.898Z,13.37
2023-03-04T17:08:46.745Z,14.27
2023-03-04T17:11:16.895Z,10.07
2023-03-04T17:13:43.943Z,13.47
2023-03-04T17:16:11.516Z,12.30
2023-03-04T17:18:38.842Z,20.90
2023-03-04T17:21:07.991Z,16.17
2023-03-04T17:23:38.532Z,15.37
2023-03-04T17:26:05.578Z,18.37
2023-03-04T17:28:32.645Z,15.17
2023-03-04T17:31:00.655Z,18.63
2023-03-04T17:33:27.309Z,16.93
2023-03-04T17:35:53.753Z,14.60
2023-03-04T17:38:20.603Z,15.10
2023-03-04T17:40:47.102Z,18.37
2023-03-04T17:43:13.596Z,11.27
2023-03-04T17:45:41.158Z,22.67
2023-03-04T17:48:08.738Z,20.17
2023-03-04T17:50:35.420Z,13.77
2023-03-04T17:53:02.001Z,20.97
2023-03-04T17:55:28.467Z,16.43
2023-03-04T17:57:57.356Z,15.77
2023-03-04T18:00:24.103Z,23.47
2023-03-04T18:02:50.559Z,16.37
2023-03-04T18:05:16.974Z,18.97
2023-03-04T18:07:43.447Z,20.73
2023-03-04T18:10:11.183Z,18.83
2023-03-04T18:12:37.766Z,13.90
2023-03-04T18:15:04.571Z,13.33
2023-03-04T18:17:31.034Z,14.20
2023-03-04T18:19:57.428Z,16.33
2023-03-04T18:22:23.801Z,17.20
2023-03-04T18:24:50.210Z,12.93
2023-03-04T18:27:16.588Z,13.50
2023-03-04T18:29:42.993Z,16.53
2023-03-04T18:32:09.679Z,14.03
2023-03-04T18:34:36.216Z,9.67
2023-03-04T18:37:05.185Z,9.50
2023-03-04T18:39:31.660Z,12.20
2023-03-04T18:41:58.120Z,10.77
2023-03-04T18:44:24.512Z,12.93
2023-03-04T18:46:52.913Z,14.40
2023-03-04T18:49:20.224Z,14.17
2023-03-04T18:51:46.770Z,16.93
2023-03-04T18:54:13.212Z,9.33
2023-03-04T18:56:54.601Z,11.83
2023-03-04T18:59:31.423Z,9.97
2023-03-04T19:01:59.737Z,13.87
2023-03-04T19:04:27.948Z,11.57
2023-03-04T19:06:54.694Z,15.20
2023-03-04T19:09:21.128Z,12.33
2023-03-04T19:11:50.423Z,12.83
2023-03-04T19:14:16.885Z,11.03
2023-03-04T19:16:43.334Z,14.73
2023-03-04T19:19:09.731Z,12.40
2023-03-04T19:21:39.034Z,16.33
2023-03-04T19:24:05.841Z,13.67
2023-03-04T19:26:32.913Z,13.97
2023-03-04T19:29:00.377Z,15.67
2023-03-04T19:31:27.148Z,15.47
2023-03-04T19:33:53.626Z,19.27
2023-03-04T19:36:20.206Z,14.83
2023-03-04T19:38:46.633Z,15.90
2023-03-04T19:41:17.411Z,14.97
2023-03-04T19:43:45.908Z,15.87
2023-03-04T19:46:16.963Z,11.07
2023-03-04T19:48:45.199Z,12.47
2023-03-04T19:51:16.909Z,4.97
2023-03-04T19:53:43.881Z,8.17
2023-03-04T19:56:10.897Z,11.33
2023-03-04T19:58:37.352Z,11.50
2023-03-04T20:01:04.314Z,19.07
2023-03-04T20:03:30.814Z,15.80
2023-03-04T20:06:07.912Z,12.83
2023-03-04T20:08:37.856Z,11.57
2023-03-04T20:11:11.552Z,7.40
2023-03-04T20:13:37.954Z,10.37
2023-03-04T20:16:09.458Z,13.27
2023-03-04T20:18:36.053Z,9.57
2023-03-04T20:21:02.824Z,10.93
2023-03-04T20:23:29.444Z,10.37
2023-03-04T20:25:55.959Z,9.10
2023-03-04T20:28:25.702Z,15.23
2023-03-04T20:30:53.418Z,9.37
2023-03-04T20:33:20.585Z,10.60
2023-03-04T20:35:47.416Z,11.10
2023-03-04T20:38:16.144Z,12.17
2023-03-04T20:40:42.620Z,10.10
2023-03-04T20:43:10.074Z,13.27
2023-03-04T20:45:37.286Z,10.00
2023-03-04T20:48:05.587Z,8.60
2023-03-04T20:50:32.011Z,6.10
2023-03-04T20:53:01.527Z,10.67
2023-03-04T20:55:28.119Z,7.20
2023-03-04T20:57:54.754Z,6.37
2023-03-04T21:00:21.596Z,10.90
2023-03-04T21:02:48.017Z,13.97
2023-03-04T21:05:14.637Z,9.23
2023-03-04T21:07:41.060Z,10.33
2023-03-04T21:10:07.797Z,16.43
2023-03-04T21:12:34.295Z,9.00
2023-03-04T21:15:08.199Z,8.53
2023-03-04T21:17:34.662Z,6.00
2023-03-04T21:20:01.051Z,12.33
2023-03-04T21:22:28.838Z,13.57
2023-03-04T21:24:55.902Z,5.90
2023-03-04T21:27:23.625Z,8.17
2023-03-04T21:29:50.192Z,9.30
2023-03-04T21:32:24.611Z,9.77
2023-03-04T21:34:52.420Z,6.97
2023-03-04T21:37:20.473Z,11.77
2023-03-04T21:39:46.981Z,9.30
2023-03-04T21:42:13.608Z,9.43
2023-03-04T21:44:48.970Z,9.17
2023-03-04T21:47:16.589Z,11.20
2023-03-04T21:49:43.250Z,8.33
2023-03-04T21:52:09.780Z,9.83
2023-03-04T21:54:36.165Z,8.67
2023-03-04T21:57:02.684Z,13.47
2023-03-04T21:59:29.154Z,9.83
2023-03-04T22:01:55.688Z,10.30
2023-03-04T22:04:22.216Z,6.87
2023-03-04T22:06:48.904Z,11.73
2023-03-04T22:09:15.765Z,8.13
2023-03-04T22:11:42.287Z,11.43
2023-03-04T22:14:10.503Z,12.17
2023-03-04T22:16:48.936Z,6.13
2023-03-04T22:19:20.927Z,11.50
2023-03-04T22:21:47.395Z,6.30
2023-03-04T22:24:13.811Z,9.67
2023-03-04T22:26:40.218Z,5.37
2023-03-04T22:29:06.628Z,9.43
2023-03-04T22:31:35.744Z,7.93
2023-03-04T22:34:05.220Z,8.67
2023-03-04T22:36:33.536Z,12.70
2023-03-04T22:39:01.759Z,11.10
2023-03-04T22:41:28.249Z,9.90
2023-03-04T22:43:55.020Z,6.07
2023-03-04T22:46:27.297Z,8.70
2023-03-04T22:48:56.346Z,9.10
2023-03-04T22:51:23.497Z,5.03
2023-03-04T22:53:51.753Z,7.67
2023-03-04T22:56:19.247Z,9.07
2023-03-04T22:58:47.033Z,10.73
2023-03-04T23:01:15.299Z,13.57
2023-03-04T23:03:42.557Z,9.77
2023-03-04T23:06:30.828Z,9.07
2023-03-04T23:08:58.125Z,7.13
2023-03-04T23:11:27.976Z,8.93
2023-03-04T23:13:54.742Z,11.73
2023-03-04T23:16:24.372Z,4.53
2023-03-04T23:18:51.909Z,7.83
2023-03-04T23:21:23.988Z,9.97
2023-03-04T23:23:51.974Z,6.53
2023-03-04T23:26:21.315Z,10.97
2023-03-04T23:28:48.310Z,5.77
2023-03-04T23:31:15.113Z,13.50
2023-03-04T23:33:44.650Z,11.03
2023-03-04T23:36:15.254Z,8.77
2023-03-04T23:38:43.762Z,9.83
2023-03-04T23:41:15.192Z,10.67
2023-03-04T23:43:41.916Z,10.77
2023-03-04T23:46:12.367Z,10.50
2023-03-04T23:48:43.742Z,9.13
2023-03-04T23:51:10.916Z,13.10
2023-03-04T23:53:39.185Z,7.77
2023-03-04T23:56:10.339Z,11.63
2023-03-04T23:58:36.889Z,9.73
